Stockton, CA

3:30 AM PDT on September 16, 2014 (GMT -0700)
Livermore Municipal | Change Station
CLOSE
Current Station
Airport
Location: Livermore,
Elevation: 397 ft
Nearby Weather Stations

Elev 397 ft 37.69 °N, 121.81 °W | Updated 37 minutes ago

Clear
Clear
59 °F
Feels Like 59 °F
N
5
Wind Variable Wind from West

Today
High -- | Low -- °F
--% Chance of Precip.
Yesterday
High -- | Low -- °F
Precip. -- in
6:47 AM 7:11 PM
Waning Gibbous, 47% visible
Pressure 29.91 in
Visibility 10.0 miles
Clouds Clear
Dew Point 55 °F
Humidity 87%
Rainfall 0.00 in
Snow Depth 0 in , 0 in , 0 in
UV 0 out of 12
Pollen 6.70 out of 12
Ozone Good
PM2.5 Good
Flu Activity Not available.
METAR KLVK 160953Z AUTO 28004KT 10SM CLR 15/13 A2992 RMK AO2 SLP129 T01500128

More Conditions Fewer Conditions

Pressure 29.91 in
Visibility 10.0 miles
Clouds Clear
Dew Point 55 °F
Humidity 87%
Rainfall 0.00 in
Snow Depth 0 in , 0 in , 0 in
UV 0 out of 12
Pollen 6.70 out of 12
Ozone Good
PM2.5 Good
Flu Activity Not available.
METAR KLVK 160953Z AUTO 28004KT 10SM CLR 15/13 A2992 RMK AO2 SLP129 T01500128

More Conditions Fewer Conditions

10-Day Weather Forecast

Almanac

Astronomy

Sep. 16, 2014 Rise Set
Actual Time 6:47 AM PDT 7:11 PM PDT
Civil Twilight 6:21 AM PDT 7:37 PM PDT
Nautical Twilight 5:50 AM PDT 8:08 PM PDT
Astronomical Twilight 5:18 AM PDT 8:39 PM PDT
Moon 12:06 AM PDT 2:34 PM PDT
Length of Visible Light 13h 16m
Length of Day
12h 23m
Tomorrow will be 2m 25s shorter.
Waning Gibbous, 47% of the Moon is Illuminated
Today
Waning Gibbous
Sep 24
New
Oct 1
First Quarter
Oct 8
Full
Oct 15
Last Quarter

Today's Extremes

State Highs State Lows

Community

WunderPhotos

Upload Photos

1,753,720 photos uploaded!

WunderBlogs® & News

Nearby

Air Quality

  Air Quality AQ Index Pollutant
Yesterday Good
PM2.5
Current Good
PM2.5
Current Good
OZONE
Tuesday Good
OZONE
Wednesday Good
PM2.5
Thursday Good
OZONE
Friday Good
PM2.5
Saturday Good
PM2.5

Snow Depth

Station Depth Elevation
Rubicon #2 0 in 7500 ft
Monitor Pass 0 in 8350 ft
Leavitt Lake 0 in 9400 ft
Spratt Creek 1 in 6200 ft
Leavitt Meadows 1 in 7200 ft

Earthquake Activity

City Distance Mag. Time & Date
Covelo, California 163 miles 3.3 1:17 PM PDT
2014-09-14
Cobb, California 106 miles 2.7 11:07 AM PDT
2014-09-14
Minimum magnitude displayed is 2.5.

Coastal Water Temperatures

Place Temperature
San Francisco, CA 64.9 °F
Richmond, CA 68.0 °F
Port Chicago, CA 68.0 °F

Nearby Weather Stations